Time;durP1;ratioP1;P1;durP2;ratioP2;P2;SDS_P1;SDS_P2;PMS_P1;PMS_P2;Temp;Humidity;BMP_temperature;BMP_pressure;BME280_temperature;BME280_humidity;BME280_pressure;Samples;Min_cycle;Max_cycle;Signal;HPM_P1;HPM_P2
2021/05/11 00:00:27;;;;;;;6.00;3.30;;;;;;;19.91;58.28;98820.00;2069594;28;20042;-63
2021/05/11 00:01:27;;;;;;;6.50;3.33;;;;;;;19.90;58.12;98824.63;2065522;28;20037;-64
2021/05/11 00:02:27;;;;;;;7.50;3.33;;;;;;;19.90;58.34;98821.06;2055661;28;20030;-63
2021/05/11 00:03:28;;;;;;;5.77;3.43;;;;;;;19.90;58.28;98818.31;2056693;28;20041;-64
2021/05/11 00:04:28;;;;;;;6.67;3.53;;;;;;;19.90;58.30;98818.31;2055353;28;20045;-63
2021/05/11 00:05:30;;;;;;;7.13;3.07;;;;;;;19.90;58.17;98821.06;2061764;28;20129;-64
2021/05/11 00:06:31;;;;;;;;;;;;;;;19.86;58.23;98816.97;2063570;28;20026;-63
2021/05/11 00:07:31;;;;;;;7.22;3.42;;;;;;;19.86;58.30;98815.09;2062967;28;19989;-63
2021/05/11 00:08:32;;;;;;;4.03;2.90;;;;;;;19.87;58.28;98815.97;2062798;28;20045;-63
2021/05/11 00:09:32;;;;;;;7.13;3.73;;;;;;;19.88;58.25;98817.66;2063645;28;20088;-63
2021/05/11 00:10:33;;;;;;;5.67;3.00;;;;;;;19.88;58.37;98807.56;2062824;28;20109;-63
2021/05/11 00:11:34;;;;;;;6.43;3.57;;;;;;;19.88;58.38;98813.03;2062570;28;20045;-63
2021/05/11 00:12:34;;;;;;;7.00;2.92;;;;;;;19.88;58.40;98812.19;2062596;28;20026;-63
2021/05/11 00:13:35;;;;;;;6.57;3.47;;;;;;;19.87;58.16;98805.88;2059431;28;20038;-64
2021/05/11 00:14:35;;;;;;;7.17;3.67;;;;;;;19.88;58.30;98806.72;2062800;28;20034;-63
2021/05/11 00:15:36;;;;;;;6.73;3.33;;;;;;;19.88;58.27;98806.72;2061576;28;20138;-63
2021/05/11 00:16:36;;;;;;;3.30;2.77;;;;;;;19.88;58.29;98795.78;2062600;28;20032;-64
2021/05/11 00:17:37;;;;;;;6.27;2.83;;;;;;;19.88;57.92;98806.72;2063197;28;20109;-63
2021/05/11 00:18:37;;;;;;;7.67;4.10;;;;;;;19.88;58.45;98801.25;2063377;28;20037;-63
2021/05/11 00:19:38;;;;;;;6.43;3.50;;;;;;;19.89;58.29;98808.38;2061688;28;20464;-63
2021/05/11 00:20:38;;;;;;;4.33;2.83;;;;;;;19.87;58.21;98805.88;2060610;28;20034;-64
2021/05/11 00:21:38;;;;;;;5.63;3.33;;;;;;;19.89;58.10;98808.38;2061040;28;20056;-63
2021/05/11 00:22:39;;;;;;;5.77;3.43;;;;;;;19.88;58.29;98801.25;2061386;28;20038;-64
2021/05/11 00:23:40;;;;;;;6.60;3.37;;;;;;;19.88;58.45;98798.50;2062869;28;20587;-64
2021/05/11 00:24:40;;;;;;;6.27;3.50;;;;;;;19.89;58.18;98811.13;2063546;28;20059;-64
2021/05/11 00:25:41;;;;;;;5.80;3.67;;;;;;;19.88;58.29;98803.97;2061464;28;20076;-64
2021/05/11 00:26:41;;;;;;;6.77;3.20;;;;;;;19.88;58.22;98804.81;2063491;28;20052;-64
2021/05/11 00:27:42;;;;;;;5.07;2.80;;;;;;;19.87;58.31;98805.88;2062612;28;20053;-63
2021/05/11 00:28:42;;;;;;;5.40;3.10;;;;;;;19.87;58.33;98807.75;2060650;28;20050;-63
2021/05/11 00:29:43;;;;;;;5.80;3.10;;;;;;;19.88;58.39;98812.19;2063696;28;20093;-63
2021/05/11 00:30:43;;;;;;;5.27;3.10;;;;;;;19.88;58.19;98817.66;2062558;28;20512;-63
2021/05/11 00:31:44;;;;;;;5.77;4.17;;;;;;;19.87;58.33;98811.34;2062319;28;20034;-64
2021/05/11 00:32:44;;;;;;;4.13;2.70;;;;;;;19.88;58.24;98817.66;2062365;28;20066;-63
2021/05/11 00:33:45;;;;;;;7.77;3.10;;;;;;;19.88;58.24;98814.91;2062015;28;20041;-63
2021/05/11 00:34:45;;;;;;;6.37;3.80;;;;;;;19.88;58.28;98823.13;2062823;28;20033;-63
2021/05/11 00:35:46;;;;;;;4.90;3.03;;;;;;;19.88;58.29;98817.66;2062996;28;20026;-64
2021/05/11 00:36:47;;;;;;;6.03;3.65;;;;;;;19.88;58.30;98817.66;2063349;28;20073;-63
2021/05/11 00:37:47;;;;;;;5.63;3.13;;;;;;;19.88;58.37;98825.84;2062124;28;20113;-64
2021/05/11 00:38:48;;;;;;;4.30;2.77;;;;;;;19.87;58.51;98821.44;2061909;28;20116;-63
2021/05/11 00:39:48;;;;;;;5.90;3.03;;;;;;;19.88;58.36;98829.44;2062357;28;20445;-63
2021/05/11 00:40:49;;;;;;;7.43;3.63;;;;;;;19.87;58.32;98832.38;2059655;28;20051;-64
2021/05/11 00:41:49;;;;;;;6.43;3.10;;;;;;;19.88;58.32;98834.06;2063472;28;20026;-64
2021/05/11 00:42:49;;;;;;;4.23;3.17;;;;;;;19.88;58.32;98834.91;2059818;28;20046;-63
2021/05/11 00:43:50;;;;;;;4.27;3.20;;;;;;;19.88;58.24;98828.59;2063402;28;20541;-63
2021/05/11 00:44:50;;;;;;;8.33;3.63;;;;;;;19.88;58.33;98834.06;2070189;28;20172;-63
2021/05/11 00:45:51;;;;;;;4.07;2.90;;;;;;;19.87;58.21;98835.94;2068438;28;20040;-63
2021/05/11 00:47:03;;;;;;;7.27;3.97;;;;;;;19.88;58.16;98839.53;2062880;28;20025;-63
2021/05/11 00:48:04;;;;;;;;;;;;;;;19.83;58.44;98844.69;2063139;28;20030;-63
2021/05/11 00:49:04;;;;;;;5.88;3.08;;;;;;;19.85;58.34;98916.47;2063150;28;19910;-63
2021/05/11 00:50:05;;;;;;;5.07;3.07;;;;;;;19.85;58.25;98900.91;2063031;28;20030;-63
2021/05/11 00:51:06;;;;;;;5.30;3.30;;;;;;;19.86;58.36;98908.06;2058817;28;20030;-64
2021/05/11 00:52:08;;;;;;;4.68;2.58;;;;;;;19.86;58.26;98934.56;2063363;28;20625;-64
2021/05/11 00:53:08;;;;;;;5.60;3.30;;;;;;;19.86;58.38;98929.09;2061458;28;20026;-64
2021/05/11 01:00:09;;;;;;;6.57;2.65;;;;;;;19.79;58.40;98960.94;1982919;27;20071;-65
2021/05/11 01:01:10;;;;;;;5.00;3.42;;;;;;;19.81;58.51;98964.34;2055591;23;20575;-63
2021/05/11 01:02:11;;;;;;;5.43;2.80;;;;;;;19.81;58.39;98978.00;2060190;28;20657;-64
2021/05/11 01:03:11;;;;;;;4.80;2.72;;;;;;;19.81;58.52;98965.19;2052076;28;20908;-63
2021/05/11 01:04:12;;;;;;;4.77;2.90;;;;;;;19.82;58.35;98974.25;2054233;28;20056;-64
2021/05/11 01:05:13;;;;;;;5.38;3.33;;;;;;;19.82;58.35;98986.06;2059496;28;20034;-64
2021/05/11 01:06:14;;;;;;;4.40;2.80;;;;;;;19.81;58.33;98975.28;2060804;28;20153;-63
2021/05/11 01:07:14;;;;;;;8.43;3.37;;;;;;;19.82;58.32;98971.50;2055325;28;20046;-63
2021/05/11 01:08:15;;;;;;;6.03;2.70;;;;;;;19.82;58.29;98982.44;2061721;28;20533;-64
2021/05/11 01:09:16;;;;;;;4.75;2.88;;;;;;;19.83;58.34;98967.75;2064153;28;20042;-64
2021/05/11 01:10:16;;;;;;;5.33;3.00;;;;;;;19.82;58.28;98977.84;2060838;28;20105;-63
2021/05/11 01:11:17;;;;;;;6.03;3.13;;;;;;;19.82;58.28;98977.84;2057074;28;20038;-64
2021/05/11 01:12:17;;;;;;;4.77;3.13;;;;;;;19.81;58.22;98975.28;2060123;28;20038;-63
2021/05/11 01:13:18;;;;;;;6.00;2.90;;;;;;;19.82;58.19;98976.97;2060724;28;20377;-63
2021/05/11 01:14:19;;;;;;;4.23;3.13;;;;;;;19.82;58.25;98971.50;2053390;28;20164;-64
2021/05/11 01:15:20;;;;;;;4.65;2.75;;;;;;;19.81;58.21;98965.19;2048297;28;20540;-63
2021/05/11 01:16:20;;;;;;;4.37;3.07;;;;;;;19.81;58.14;98973.41;2061192;28;20045;-63
2021/05/11 01:17:25;;;;;;;4.13;2.73;;;;;;;19.82;58.10;98974.25;2065287;28;20048;-64
2021/05/11 01:18:31;;;;;;;6.40;2.70;;;;;;;19.81;58.06;98976.13;2068523;28;20048;-64
2021/05/11 01:19:45;;;;;;;4.90;2.67;;;;;;;19.81;58.10;98965.19;2059861;28;20034;-63
2021/05/11 01:20:48;;;;;;;3.92;2.53;;;;;;;19.81;58.10;98951.50;2062771;28;20033;-63
2021/05/11 01:23:56;;;;;;;6.35;2.80;;;;;;;19.81;58.53;98956.13;2062171;28;20030;-63
2021/05/11 01:24:59;;;;;;;5.43;3.75;;;;;;;19.79;58.20;98956.31;2056110;28;20042;-63
2021/05/11 01:25:39;;;;;;;5.15;2.55;;;;;;;19.78;58.25;98960.09;2053640;28;20066;-63
2021/05/11 01:29:38;;;;;;;7.00;3.00;;;;;;;19.80;58.21;98957.19;2061206;28;20034;-63
2021/05/11 01:46:02;;;;;;;5.47;2.72;;;;;;;19.77;58.22;98968.47;2062022;28;20057;-63
2021/05/11 01:52:41;;;;;;;4.38;2.63;;;;;;;19.78;58.11;98959.25;2057398;28;20513;-64
2021/05/11 01:55:42;;;;;;;4.15;2.65;;;;;;;19.76;58.06;98950.38;2062127;28;20397;-64
2021/05/11 02:23:35;;;;;;;3.75;2.38;;;;;;;19.72;58.10;98916.22;2062351;28;20089;-63
2021/05/11 02:24:35;;;;;;;2.93;2.27;;;;;;;19.73;57.94;98915.19;2063230;28;20026;-64
2021/05/11 02:25:35;;;;;;;6.00;2.60;;;;;;;19.74;57.94;98908.69;2065138;28;20022;-64
2021/05/11 02:26:36;;;;;;;3.83;2.43;;;;;;;19.74;57.95;98908.69;2053143;28;20042;-63
2021/05/11 02:27:37;;;;;;;3.57;2.30;;;;;;;19.74;57.82;98922.34;2053035;28;20041;-63
2021/05/11 02:28:38;;;;;;;3.53;2.35;;;;;;;19.75;57.93;98926.81;2061356;28;20377;-63
2021/05/11 02:29:38;;;;;;;3.97;1.90;;;;;;;19.76;57.88;98914.81;2061913;28;20029;-63
2021/05/11 02:30:39;;;;;;;2.60;2.23;;;;;;;19.76;57.91;98923.88;2061416;28;20041;-64
2021/05/11 02:31:39;;;;;;;5.20;2.50;;;;;;;19.76;57.84;98923.03;2061260;28;20569;-63
2021/05/11 02:32:41;;;;;;;3.77;2.73;;;;;;;19.76;57.75;98926.59;2061650;28;20034;-63
2021/05/11 02:33:41;;;;;;;;;;;;;;;19.73;57.89;98917.94;2062384;28;20030;-64
2021/05/11 02:34:43;;;;;;;4.07;2.72;;;;;;;19.73;57.99;98926.13;2062452;28;19914;-64
2021/05/11 02:37:41;;;;;;;3.80;2.55;;;;;;;19.72;57.94;98932.63;2065921;23;20035;-63
2021/05/11 02:38:41;;;;;;;4.25;2.67;;;;;;;19.73;58.03;98934.34;2053514;28;20054;-63
2021/05/11 02:39:42;;;;;;;4.03;2.47;;;;;;;19.73;58.00;98935.19;2052689;28;20126;-64
2021/05/11 02:40:42;;;;;;;4.53;2.50;;;;;;;19.74;58.03;98938.75;2061698;28;20026;-63
2021/05/11 02:41:44;;;;;;;3.40;2.50;;;;;;;19.74;57.93;98947.81;2061077;28;20030;-64
2021/05/11 02:42:46;;;;;;;3.15;2.17;;;;;;;19.74;57.99;98947.81;2062141;28;20031;-64
2021/05/11 02:43:46;;;;;;;;;;;;;;;19.71;57.96;98959.13;2062235;28;20038;-63
2021/05/11 02:44:47;;;;;;;4.50;2.85;;;;;;;19.72;58.05;98970.91;2062110;28;19909;-63
2021/05/11 02:45:48;;;;;;;5.28;2.67;;;;;;;19.74;57.96;98985.25;2061645;28;20037;-63
2021/05/11 02:46:49;;;;;;;5.20;2.73;;;;;;;19.75;57.78;98995.16;2066328;28;20029;-64
2021/05/11 02:47:50;;;;;;;4.00;2.60;;;;;;;19.75;57.84;99000.63;2062290;28;20073;-64
2021/05/11 02:48:50;;;;;;;3.97;2.65;;;;;;;19.75;57.92;99008.84;2065699;28;20026;-64
2021/05/11 02:49:51;;;;;;;3.43;2.20;;;;;;;19.77;57.96;99020.41;2061507;28;20031;-63
2021/05/11 02:50:51;;;;;;;4.60;2.33;;;;;;;19.76;57.99;99021.47;2061718;28;20149;-63
2021/05/11 02:51:52;;;;;;;4.17;2.47;;;;;;;19.76;57.91;99021.47;2061648;28;20117;-63
2021/05/11 02:52:53;;;;;;;3.67;2.57;;;;;;;19.77;57.87;99034.09;2058823;28;20444;-64
2021/05/11 02:53:53;;;;;;;4.50;2.60;;;;;;;19.77;57.79;99039.56;2062160;28;20041;-64
2021/05/11 02:54:54;;;;;;;4.30;2.83;;;;;;;19.76;57.87;99038.72;2063686;28;20072;-64
2021/05/11 02:55:54;;;;;;;3.83;2.70;;;;;;;19.77;57.82;99042.28;2067710;28;20693;-63
2021/05/11 02:56:55;;;;;;;3.80;2.33;;;;;;;19.76;57.89;99048.81;2061422;28;20084;-64
2021/05/11 02:57:56;;;;;;;4.03;2.10;;;;;;;19.76;57.98;99057.84;2061861;28;20054;-63
2021/05/11 02:58:57;;;;;;;5.15;2.45;;;;;;;19.77;57.95;99055.97;2069388;28;20030;-63
2021/05/11 02:59:57;;;;;;;3.57;2.43;;;;;;;19.76;57.81;99054.28;2067273;28;20096;-63
2021/05/11 03:00:58;;;;;;;3.83;2.53;;;;;;;19.76;57.92;99049.66;2063523;28;20037;-64
2021/05/11 03:02:00;;;;;;;3.60;2.20;;;;;;;19.75;57.85;99047.97;2060956;28;20026;-63
2021/05/11 03:03:01;;;;;;;4.15;2.53;;;;;;;19.76;57.93;99051.53;2061533;28;20041;-64
2021/05/11 03:04:01;;;;;;;6.83;2.97;;;;;;;19.77;57.85;99050.50;2054603;28;20054;-63
2021/05/11 03:05:04;;;;;;;4.27;2.73;;;;;;;19.76;57.80;99054.28;2057297;28;20041;-64
2021/05/11 03:06:04;;;;;;;3.63;2.40;;;;;;;19.77;57.90;99055.97;2062464;28;20058;-64
2021/05/11 03:07:05;;;;;;;5.47;2.67;;;;;;;19.76;57.89;99051.53;2061419;28;20034;-63
2021/05/11 03:08:05;;;;;;;2.83;2.00;;;;;;;19.75;57.85;99047.97;2062313;28;20882;-64
2021/05/11 03:09:06;;;;;;;4.03;2.10;;;;;;;19.76;57.84;99057.00;2061927;28;20410;-64
2021/05/11 03:10:08;;;;;;;2.60;2.07;;;;;;;19.75;57.75;99058.06;2065469;28;20432;-63
2021/05/11 03:11:09;;;;;;;4.78;2.15;;;;;;;19.75;57.90;99058.06;2061197;28;20094;-64
2021/05/11 03:12:09;;;;;;;4.53;2.03;;;;;;;19.75;57.87;99066.25;2061540;28;20040;-63
2021/05/11 03:13:10;;;;;;;2.77;2.00;;;;;;;19.75;57.87;99063.53;2061748;28;20074;-64
2021/05/11 03:14:11;;;;;;;2.37;1.83;;;;;;;19.76;57.93;99078.88;2062342;28;20073;-64
2021/05/11 03:15:13;;;;;;;3.92;1.90;;;;;;;19.76;57.90;99070.69;2060069;28;20069;-64
2021/05/11 03:16:13;;;;;;;;;;;;;;;19.70;58.03;99073.09;2059691;28;20531;-64
2021/05/11 03:17:13;;;;;;;3.65;2.20;;;;;;;19.72;58.02;99069.31;2052679;28;19965;-63
2021/05/11 03:18:14;;;;;;;2.67;1.73;;;;;;;19.72;58.02;99072.94;2052901;28;20026;-63
2021/05/11 03:19:14;;;;;;;3.43;2.60;;;;;;;19.73;58.08;99071.03;2060710;28;20125;-63
2021/05/11 03:20:15;;;;;;;3.60;2.40;;;;;;;19.73;58.03;99079.25;2056288;28;20034;-63
2021/05/11 03:21:15;;;;;;;3.40;2.23;;;;;;;19.72;57.93;99074.78;2057802;28;20105;-64
2021/05/11 03:22:16;;;;;;;5.37;2.57;;;;;;;19.73;58.10;99065.56;2061911;28;20034;-63
2021/05/11 03:23:16;;;;;;;2.87;2.17;;;;;;;19.72;57.92;99069.31;2058323;28;20026;-63
2021/05/11 03:24:17;;;;;;;3.03;2.20;;;;;;;19.73;58.00;99076.50;2061596;28;20062;-63
2021/05/11 03:25:17;;;;;;;5.10;2.63;;;;;;;19.73;58.00;99073.78;2061158;28;20022;-63
2021/05/11 03:26:18;;;;;;;2.93;1.67;;;;;;;19.73;58.09;99076.50;2061292;28;20032;-63
2021/05/11 03:27:18;;;;;;;3.30;2.00;;;;;;;19.73;57.93;99082.81;2062109;28;20034;-63
2021/05/11 03:28:19;;;;;;;4.47;2.10;;;;;;;19.73;57.91;99081.97;2061584;28;20026;-63
2021/05/11 03:29:19;;;;;;;3.77;2.13;;;;;;;19.73;57.93;99081.97;2062230;28;20056;-63
2021/05/11 03:30:20;;;;;;;3.30;2.00;;;;;;;19.73;58.03;99092.91;2061564;28;20065;-63
2021/05/11 03:31:20;;;;;;;4.47;2.30;;;;;;;19.72;57.93;99085.72;2060632;28;20042;-63
2021/05/11 03:32:21;;;;;;;3.40;2.60;;;;;;;19.73;58.00;99087.44;2062072;28;20030;-63
2021/05/11 03:33:21;;;;;;;3.20;2.40;;;;;;;19.72;58.03;99091.19;2057879;28;20033;-64
2021/05/11 03:34:22;;;;;;;3.37;2.20;;;;;;;19.73;57.99;99098.38;2045738;28;20106;-64
2021/05/11 03:35:22;;;;;;;2.90;1.83;;;;;;;19.74;58.00;99097.34;2052307;28;20493;-63
2021/05/11 03:36:24;;;;;;;3.67;2.27;;;;;;;19.73;57.95;99098.38;2060974;28;20206;-64
2021/05/11 03:37:24;;;;;;;3.08;2.55;;;;;;;19.73;58.03;99098.38;2062044;28;20034;-63
2021/05/11 03:38:25;;;;;;;4.93;2.40;;;;;;;19.73;58.01;99099.22;2060260;28;20042;-63
2021/05/11 03:39:25;;;;;;;3.53;2.10;;;;;;;19.73;57.99;99095.66;2062801;28;20081;-64
2021/05/11 03:40:26;;;;;;;4.73;2.03;;;;;;;19.73;57.94;99095.66;2066054;28;20037;-63
2021/05/11 03:41:30;;;;;;;4.23;2.03;;;;;;;19.73;57.93;99091.03;2063102;28;20064;-64
2021/05/11 03:42:37;;;;;;;3.30;2.05;;;;;;;19.72;58.01;99091.19;2046840;29;20097;-63
2021/05/11 03:43:48;;;;;;;4.10;2.30;;;;;;;19.70;57.99;99092.25;2057903;28;20724;-64
2021/05/11 03:44:52;;;;;;;3.75;2.30;;;;;;;19.70;58.06;99097.72;2056989;28;20057;-63
2021/05/11 03:46:04;;;;;;;3.65;2.17;;;;;;;19.70;57.98;99094.97;2067000;28;20050;-63
2021/05/11 03:47:05;;;;;;;3.65;2.58;;;;;;;19.70;58.03;99089.50;2063759;28;20061;-64
2021/05/11 03:48:06;;;;;;;4.33;2.00;;;;;;;19.70;57.91;99100.44;2062622;28;20030;-64
2021/05/11 03:49:07;;;;;;;2.70;2.10;;;;;;;19.70;57.99;99094.97;2061792;28;20034;-64
2021/05/11 03:50:08;;;;;;;3.50;1.77;;;;;;;19.71;58.11;99095.81;2063432;28;20047;-64
2021/05/11 03:51:09;;;;;;;4.47;2.25;;;;;;;19.72;58.00;99096.66;2062620;28;20509;-64
2021/05/11 03:52:09;;;;;;;3.53;2.17;;;;;;;19.70;57.99;99097.72;2063381;28;20394;-63
2021/05/11 03:53:10;;;;;;;2.77;1.97;;;;;;;19.72;58.13;99096.66;2059310;28;20026;-64
2021/05/11 03:54:11;;;;;;;3.07;1.83;;;;;;;19.70;58.00;99102.34;2064347;28;20034;-64
2021/05/11 03:55:11;;;;;;;3.57;2.40;;;;;;;19.70;58.00;99102.34;2070505;28;20033;-64
2021/05/11 03:56:12;;;;;;;3.03;2.20;;;;;;;19.69;58.10;99093.25;2062300;28;20030;-63
2021/05/11 03:57:12;;;;;;;1.80;1.43;;;;;;;19.69;57.99;99095.97;2056387;28;20248;-63
2021/05/11 03:58:13;;;;;;;2.53;1.97;;;;;;;19.70;58.05;99088.66;2048450;28;20064;-64
2021/05/11 03:59:14;;;;;;;4.45;1.73;;;;;;;19.70;58.06;99103.19;2060843;28;20493;-64
2021/05/11 04:00:15;;;;;;;4.33;1.83;;;;;;;19.69;57.98;99098.72;2062708;28;20549;-64
2021/05/11 04:01:15;;;;;;;2.83;2.00;;;;;;;19.69;58.13;99093.25;2062714;28;20734;-63
2021/05/11 04:02:16;;;;;;;2.57;1.90;;;;;;;19.69;58.02;99092.41;2063175;28;20732;-63
2021/05/11 04:03:16;;;;;;;2.40;1.80;;;;;;;19.70;58.08;99099.59;2063403;28;20026;-63
2021/05/11 04:04:19;;;;;;;2.73;1.80;;;;;;;19.68;58.14;99091.56;2061993;28;20038;-63
2021/05/11 04:05:20;;;;;;;2.83;2.22;;;;;;;19.69;58.08;99097.88;2062103;28;20414;-64
2021/05/11 04:06:21;;;;;;;2.65;1.98;;;;;;;19.70;57.98;99100.44;2061216;28;20809;-64
2021/05/11 04:07:21;;;;;;;2.93;2.10;;;;;;;19.68;58.16;99097.03;2062812;28;20409;-64
2021/05/11 04:09:10;;;;;;;2.83;2.00;;;;;;;19.68;57.98;99105.22;2063078;28;20024;-64
2021/05/11 04:09:50;;;;;;;2.08;1.65;;;;;;;19.68;58.10;99099.75;2051063;28;20038;-63
2021/05/11 04:10:56;;;;;;;3.45;2.03;;;;;;;19.67;57.93;99095.34;2062429;28;20241;-64
2021/05/11 04:16:29;;;;;;;3.35;2.13;;;;;;;19.66;58.23;99099.06;2065378;28;20038;-64
2021/05/11 04:17:29;;;;;;;2.33;1.92;;;;;;;19.67;58.17;99100.81;2063246;28;20625;-64
2021/05/11 04:18:30;;;;;;;2.63;1.70;;;;;;;19.67;58.22;99095.34;2062463;28;20034;-63
2021/05/11 04:19:31;;;;;;;3.13;2.20;;;;;;;19.68;58.10;99104.38;2063015;28;20026;-63
2021/05/11 04:20:31;;;;;;;3.60;2.33;;;;;;;19.68;58.13;99098.91;2063252;28;20034;-64
2021/05/11 04:21:31;;;;;;;2.50;2.00;;;;;;;19.67;58.06;99097.16;2061941;28;20041;-63
2021/05/11 04:22:32;;;;;;;3.37;2.30;;;;;;;19.67;58.10;99100.81;2069511;28;20038;-64
2021/05/11 04:23:32;;;;;;;2.57;1.87;;;;;;;19.67;58.15;99106.28;2059358;28;20077;-64
2021/05/11 04:24:33;;;;;;;4.17;2.20;;;;;;;19.67;58.12;99110.84;2062414;28;20030;-64
2021/05/11 04:25:33;;;;;;;3.13;1.80;;;;;;;19.68;58.17;99112.59;2063353;28;20152;-64
2021/05/11 04:26:34;;;;;;;4.13;1.93;;;;;;;19.68;58.15;99116.16;2062757;28;20088;-63
2021/05/11 04:27:34;;;;;;;2.63;1.97;;;;;;;19.68;58.10;99115.31;2063530;28;20031;-64
2021/05/11 04:28:34;;;;;;;2.73;2.03;;;;;;;19.68;58.05;99121.63;2062266;28;20465;-64
2021/05/11 04:29:35;;;;;;;3.60;2.10;;;;;;;19.67;58.08;99119.94;2063154;28;20084;-64
2021/05/11 04:30:35;;;;;;;2.57;1.63;;;;;;;19.68;58.10;99123.53;2062553;28;20805;-63
2021/05/11 04:31:37;;;;;;;3.07;1.60;;;;;;;19.67;58.16;99127.25;2062918;28;20026;-64
2021/05/11 04:32:38;;;;;;;4.63;2.10;;;;;;;19.68;58.25;99126.25;2063178;28;20026;-63
2021/05/11 04:33:38;;;;;;;3.20;1.77;;;;;;;19.68;58.12;99124.38;2062052;28;20071;-64
2021/05/11 04:34:39;;;;;;;3.97;1.70;;;;;;;19.67;58.05;99122.69;2063122;28;20470;-63
2021/05/11 04:35:39;;;;;;;2.67;1.80;;;;;;;19.66;58.11;99126.38;2063249;28;20045;-63
2021/05/11 04:36:40;;;;;;;2.03;1.70;;;;;;;19.66;58.17;99120.06;2061670;28;20034;-63
2021/05/11 04:37:40;;;;;;;2.63;2.03;;;;;;;19.67;58.13;99127.25;2063042;28;20483;-63
2021/05/11 04:38:41;;;;;;;2.80;1.83;;;;;;;19.67;58.31;99122.69;2062833;28;20041;-63
2021/05/11 04:39:42;;;;;;;3.72;1.95;;;;;;;19.67;58.10;99128.16;2060001;28;20036;-63
2021/05/11 04:40:42;;;;;;;2.67;1.97;;;;;;;19.65;58.16;99119.22;2059453;28;20033;-63
2021/05/11 04:41:43;;;;;;;3.13;1.90;;;;;;;19.67;58.15;99129.97;2066049;28;20485;-63
2021/05/11 04:42:44;;;;;;;2.20;1.65;;;;;;;19.66;58.26;99120.94;2063294;28;20041;-66
2021/05/11 04:43:45;;;;;;;4.60;2.10;;;;;;;19.66;58.10;99114.59;2062142;28;20755;-63
2021/05/11 04:44:46;;;;;;;2.38;1.60;;;;;;;19.66;58.09;99114.59;2063050;28;20085;-63
2021/05/11 04:45:47;;;;;;;2.23;1.63;;;;;;;19.66;58.05;99118.19;2062715;28;20038;-63
2021/05/11 04:46:58;;;;;;;2.97;2.10;;;;;;;19.65;58.09;99119.22;2063091;28;20448;-63
2021/05/11 04:47:58;;;;;;;2.88;1.95;;;;;;;19.64;58.20;99120.25;2061961;28;20034;-63
2021/05/11 04:48:59;;;;;;;2.67;1.93;;;;;;;19.64;58.16;99117.50;2062714;28;20030;-63
2021/05/11 04:49:59;;;;;;;2.47;1.60;;;;;;;19.64;58.16;99122.13;2062275;28;20144;-63
2021/05/11 04:51:00;;;;;;;2.37;1.77;;;;;;;19.64;58.20;99120.25;2064538;28;20325;-63
2021/05/11 04:52:00;;;;;;;5.90;2.10;;;;;;;19.64;58.24;99122.97;2051400;28;20462;-63
2021/05/11 04:53:01;;;;;;;4.10;2.30;;;;;;;19.64;58.10;99122.97;2053325;28;20030;-63
2021/05/11 04:54:02;;;;;;;3.73;2.20;;;;;;;19.63;58.13;99126.75;2059994;28;20030;-63
2021/05/11 04:55:03;;;;;;;2.87;2.27;;;;;;;19.65;58.17;99130.16;2063024;28;20029;-64
2021/05/11 04:56:03;;;;;;;2.90;1.83;;;;;;;19.64;58.03;99122.97;2064857;28;20129;-63
2021/05/11 04:57:05;;;;;;;3.27;1.80;;;;;;;19.65;58.14;99130.16;2062436;28;20046;-63
2021/05/11 04:58:05;;;;;;;2.58;1.98;;;;;;;19.64;58.05;99128.44;2062306;28;20038;-63
2021/05/11 04:59:05;;;;;;;3.57;2.10;;;;;;;19.64;58.18;99124.88;2061923;28;20038;-63
2021/05/11 05:00:08;;;;;;;3.37;2.17;;;;;;;19.64;58.10;99128.44;2060488;28;20041;-63
2021/05/11 05:01:09;;;;;;;3.88;2.13;;;;;;;19.64;58.17;99133.91;2065460;28;20038;-63
2021/05/11 05:02:11;;;;;;;2.63;1.80;;;;;;;19.64;58.12;99128.44;2062659;28;20101;-63
2021/05/11 05:03:15;;;;;;;2.63;1.73;;;;;;;19.63;58.09;99126.75;2062360;28;20041;-63
2021/05/11 05:04:17;;;;;;;1.90;1.65;;;;;;;19.64;58.12;99128.44;2062881;28;20037;-63
2021/05/11 05:05:17;;;;;;;2.20;1.60;;;;;;;19.64;58.15;99131.19;2062876;28;20433;-63
2021/05/11 05:06:19;;;;;;;1.93;1.77;;;;;;;19.64;58.10;99128.44;2061115;28;20100;-63
2021/05/11 05:07:19;;;;;;;2.22;1.70;;;;;;;19.63;58.26;99126.75;2061552;28;20765;-63
2021/05/11 05:08:20;;;;;;;3.67;1.83;;;;;;;19.63;58.05;99126.75;2062205;28;20713;-63
2021/05/11 05:09:21;;;;;;;2.42;1.75;;;;;;;19.64;58.01;99130.34;2065117;28;20037;-63
2021/05/11 05:10:21;;;;;;;2.80;2.03;;;;;;;19.63;58.33;99129.50;2062717;28;20042;-63
2021/05/11 05:11:22;;;;;;;3.33;2.00;;;;;;;19.62;58.31;99136.00;2062246;28;20073;-63
2021/05/11 05:12:22;;;;;;;3.10;1.30;;;;;;;19.62;58.15;99136.00;2061489;28;21109;-63
2021/05/11 05:13:25;;;;;;;3.23;2.00;;;;;;;19.60;58.45;99132.59;2062449;28;20034;-63
2021/05/11 05:14:25;;;;;;;2.30;1.88;;;;;;;19.62;58.22;99136.00;2062030;28;20034;-63
2021/05/11 05:15:26;;;;;;;2.37;1.70;;;;;;;19.62;58.21;99135.13;2062923;28;20026;-63
2021/05/11 05:16:26;;;;;;;2.80;1.87;;;;;;;19.61;58.24;99137.00;2062718;28;20042;-63
2021/05/11 05:17:26;;;;;;;2.60;1.60;;;;;;;19.62;58.21;99141.47;2062537;28;20077;-63
2021/05/11 05:18:28;;;;;;;3.10;1.90;;;;;;;19.60;58.19;99139.91;2062569;28;20038;-62
2021/05/11 05:19:29;;;;;;;3.20;2.05;;;;;;;19.60;58.31;99146.25;2061774;28;20085;-63
2021/05/11 05:20:29;;;;;;;2.47;1.43;;;;;;;19.59;58.15;99141.78;2062686;28;20093;-64
2021/05/11 05:21:30;;;;;;;4.03;1.97;;;;;;;19.60;58.22;99142.63;2062420;28;20030;-63
2021/05/11 05:22:30;;;;;;;2.60;1.90;;;;;;;19.59;58.16;99152.72;2062710;28;20761;-64
2021/05/11 05:23:37;;;;;;;4.30;1.73;;;;;;;19.60;58.26;99153.56;2061771;28;20069;-63
2021/05/11 05:24:50;;;;;;;2.85;1.67;;;;;;;19.59;58.34;99158.19;2055790;28;20055;-63
2021/05/11 05:25:57;;;;;;;2.70;1.70;;;;;;;19.58;58.33;99151.03;2061502;28;20874;-63
2021/05/11 05:27:03;;;;;;;2.13;1.77;;;;;;;19.58;58.27;99158.38;2063612;28;20096;-63
2021/05/11 05:28:09;;;;;;;2.60;1.73;;;;;;;19.59;58.28;99155.47;2061617;28;20117;-63
2021/05/11 05:29:09;;;;;;;2.90;1.90;;;;;;;19.58;58.27;99156.50;2062027;28;20029;-63
2021/05/11 05:30:11;;;;;;;2.23;1.77;;;;;;;19.60;58.44;99153.56;2062740;28;20030;-61
2021/05/11 05:31:11;;;;;;;2.28;1.95;;;;;;;19.62;58.47;99163.34;2063052;28;20049;-60
2021/05/11 05:36:58;;;;;;;3.30;2.03;;;;;;;19.60;58.69;99168.13;2061333;28;20113;-61
2021/05/11 05:37:59;;;;;;;5.00;1.83;;;;;;;19.60;58.86;99181.78;2051835;23;20555;-61
2021/05/11 05:39:00;;;;;;;4.97;2.40;;;;;;;19.62;58.97;99179.75;2045400;29;20035;-61
2021/05/11 05:40:02;;;;;;;3.77;2.20;;;;;;;19.64;59.01;99174.06;2044558;28;20112;-62
2021/05/11 05:41:12;;;;;;;4.22;1.80;;;;;;;19.65;58.85;99173.91;2043681;29;20058;-61
2021/05/11 05:42:13;;;;;;;3.05;1.88;;;;;;;19.65;58.86;99176.66;2043558;29;20019;-61
2021/05/11 05:43:13;;;;;;;4.18;1.90;;;;;;;19.68;58.90;99172.75;2046126;29;20031;-61
2021/05/11 05:44:14;;;;;;;4.00;2.10;;;;;;;19.69;58.86;99179.91;2045240;29;20029;-61
2021/05/11 05:45:15;;;;;;;6.50;2.47;;;;;;;19.69;58.92;99185.38;2047183;29;20030;-61
2021/05/11 05:46:16;;;;;;;5.35;1.90;;;;;;;19.69;58.92;99188.94;2046038;28;20221;-61
2021/05/11 05:47:18;;;;;;;3.10;1.88;;;;;;;19.69;58.95;99182.63;2046811;29;20170;-61
2021/05/11 05:48:19;;;;;;;3.72;1.75;;;;;;;19.71;58.79;99183.31;2044792;29;20031;-61
2021/05/11 05:49:20;;;;;;;3.05;1.70;;;;;;;19.71;58.84;99188.78;2046875;29;20066;-61
2021/05/11 05:50:26;;;;;;;3.92;2.00;;;;;;;19.69;58.90;99188.09;2044380;29;20037;-62
2021/05/11 05:51:27;;;;;;;2.85;1.73;;;;;;;19.70;58.83;99190.66;2040111;29;20067;-61
2021/05/11 05:52:38;;;;;;;2.75;1.80;;;;;;;19.72;58.76;99189.63;2040465;28;20045;-61
2021/05/11 05:53:41;;;;;;;4.20;2.42;;;;;;;19.70;58.64;99193.41;2042889;29;20061;-61
2021/05/11 05:54:44;;;;;;;5.07;1.63;;;;;;;19.69;58.54;99197.16;2046318;29;20475;-61
2021/05/11 05:55:44;;;;;;;2.00;1.55;;;;;;;19.73;58.54;99202.28;2046750;29;20039;-61
2021/05/11 05:56:45;;;;;;;4.60;1.70;;;;;;;19.72;58.60;99206.91;2046316;28;20050;-62
2021/05/11 05:57:45;;;;;;;3.07;1.90;;;;;;;19.73;58.54;99196.81;2046582;29;20038;-62
2021/05/11 05:58:46;;;;;;;3.43;1.83;;;;;;;19.71;58.44;99199.72;2045438;29;20061;-61
2021/05/11 05:59:46;;;;;;;3.03;1.90;;;;;;;19.71;58.65;99205.19;2040285;29;20637;-64
2021/05/11 06:00:51;;;;;;;1.90;1.60;;;;;;;19.69;58.49;99202.63;2041724;29;20035;-61